Weather Data

Pearl Creek Farm: 8878 N Farm Road 75, Walnut Grove MO 65770

<== Previous Day (Tuesday 07 Jan 2020) | Next Day (Thursday 09 Jan 2020) ==>

Summary Precipitation Data For Wednesday 08 January 2020

ElementValueUnits
Precipitation0"
Notes(none)
SourcePearl Creek Farm

Summary Temperature Data For Wednesday 08 January 2020

ElementValueUnits
High Temperature62 oF
Low Temperature30 oF
Average Temperature47 oF
High Humidity66 %
Low Humidity22 %
Average Humidity42 %
SourceSpringfield-Branson National Airport (SGF)

Detail Temperature Data For Wednesday 08 January 2020

Date / TimeTemp (F)RH (%)Dew Pt (F)Report Date / TimeSource
2020-01-08 00:52:00 37 48 19.0 2021-01-15 18:54:53.841352 Springfield-Branson National Airport (SGF)
2020-01-08 01:52:00 35 54 20.0 2021-01-15 18:54:53.841352 Springfield-Branson National Airport (SGF)
2020-01-08 02:52:00 31 64 20.0 2021-01-15 18:54:53.841352 Springfield-Branson National Airport (SGF)
2020-01-08 03:52:00 31 64 20.0 2021-01-15 18:54:53.841352 Springfield-Branson National Airport (SGF)
2020-01-08 04:52:00 30 66 20.0 2021-01-15 18:54:53.841352 Springfield-Branson National Airport (SGF)
2020-01-08 05:52:00 32 66 22.0 2021-01-15 18:54:53.841352 Springfield-Branson National Airport (SGF)
2020-01-08 06:52:00 34 61 22.0 2021-01-15 18:54:53.841352 Springfield-Branson National Airport (SGF)
2020-01-08 07:52:00 33 64 22.0 2021-01-15 18:54:53.841352 Springfield-Branson National Airport (SGF)
2020-01-08 08:52:00 41 51 24.0 2021-01-15 18:54:53.841352 Springfield-Branson National Airport (SGF)
2020-01-08 09:52:00 47 42 25.0 2021-01-15 18:54:53.841352 Springfield-Branson National Airport (SGF)
2020-01-08 10:52:00 53 34 25.0 2021-01-15 18:54:53.841352 Springfield-Branson National Airport (SGF)
2020-01-08 11:52:00 56 30 25.0 2021-01-15 18:54:53.841352 Springfield-Branson National Airport (SGF)
2020-01-08 12:52:00 58 28 25.0 2021-01-15 18:54:53.841352 Springfield-Branson National Airport (SGF)
2020-01-08 13:52:00 61 25 25.0 2021-01-15 18:54:53.841352 Springfield-Branson National Airport (SGF)
2020-01-08 14:52:00 62 22 23.0 2021-01-15 18:54:53.841352 Springfield-Branson National Airport (SGF)
2020-01-08 15:52:00 60 25 24.0 2021-01-15 18:54:53.841352 Springfield-Branson National Airport (SGF)
2020-01-08 16:52:00 57 22 18.0 2021-01-15 18:54:53.841352 Springfield-Branson National Airport (SGF)
2020-01-08 17:52:00 54 28 21.0 2021-01-15 18:54:53.841352 Springfield-Branson National Airport (SGF)
2020-01-08 18:52:00 55 26 21.0 2021-01-15 18:54:53.841352 Springfield-Branson National Airport (SGF)
2020-01-08 19:52:00 53 31 23.0 2021-01-15 18:54:53.841352 Springfield-Branson National Airport (SGF)
2020-01-08 20:52:00 51 35 24.0 2021-01-15 18:54:53.841352 Springfield-Branson National Airport (SGF)
2020-01-08 21:52:00 50 38 25.0 2021-01-15 18:54:53.841352 Springfield-Branson National Airport (SGF)
2020-01-08 22:52:00 50 39 26.0 2021-01-15 18:54:53.841352 Springfield-Branson National Airport (SGF)
2020-01-08 23:52:00 50 41 27.0 2021-01-15 18:54:53.841352 Springfield-Branson National Airport (SGF)

A total of 24 rows are displayed.